メインページ
METAR-TAF:

METAR-TAF

空港 :

ハガニア, グアム, アメリカ合衆国

グアム国際空港

緯度: 13-29N, 経度: 144-48E, 海抜: 91m

現時点の気象観測

当レポートは3時間21分前の08:54(UTC)に作成
東/北東の風 12kt
気温 27°C
湿度 79%
気圧 1013 hPa
視程: 16.1km
高度5000ftの雲はほとんどない
高度7500ftの千切れ雲あり

METAR: PGUM 240854Z 07012KT 10SM FEW050 BKN075 27/23 A2991 RMK AO2 RAB0758E09 SLP122 P0000 60000 T02670233 53011

時間: 22:15 (12:15 UTC)

予報

当レポートは52分前の11:23(UTC)に作成
予報は24日の 12時(UTC)から 25日の 18時(UTC)まで有効
東/北東の風 12kt
視程: 10km
高度2000ftの雲は散在している
高度8000ftの千切れ雲あり
近辺でにわか雨

TAF: PGUM 241123Z 2412/2518 07012KT P6SM VCSH SCT020 BKN080

4,000以上の空港の気象観測と天気予報(METAR報とTAF報)

利用可能な観測所は地図上に黄色い丸と赤い丸で示す。

丸の上にカーソルを重ねると観測所名を参照できる。

次にクリックすると気象観測と天気予報を参照できる。

マップの切り替え:黒色「×」印の緑ボタンをクリックして拡大、「-」印の緑ボタンをクリックして縮小、緑色の三角印をクリックして隣りの地図に切り替え


METAR-TAF: